sensor_id;sensor_type;location;lat;lon;timestamp;pressure;altitude;pressure_sealevel;temperature;humidity
84821;BME280;75060;50.988;11.332;2023-12-20T14:52:34;98261.75;;;5.32;73.18
84821;BME280;75060;50.988;11.332;2023-12-20T14:55:02;98265.19;;;5.33;73.64
84821;BME280;75060;50.988;11.332;2023-12-20T14:58:58;98267.53;;;5.39;73.20
84821;BME280;75060;50.988;11.332;2023-12-20T15:01:24;98268.41;;;5.30;73.49
84821;BME280;75060;50.988;11.332;2023-12-20T15:03:49;98259.13;;;5.27;72.97
84821;BME280;75060;50.988;11.332;2023-12-20T15:06:14;98271.38;;;5.28;73.02
84821;BME280;75060;50.988;11.332;2023-12-20T15:08:39;98250.28;;;5.32;73.50
84821;BME280;75060;50.988;11.332;2023-12-20T15:11:05;98240.41;;;5.32;73.41
84821;BME280;75060;50.988;11.332;2023-12-20T15:13:30;98270.50;;;5.38;72.47
84821;BME280;75060;50.988;11.332;2023-12-20T15:15:56;98253.44;;;5.39;72.51
84821;BME280;75060;50.988;11.332;2023-12-20T15:18:21;98268.41;;;5.30;73.06
84821;BME280;75060;50.988;11.332;2023-12-20T15:20:47;98258.78;;;5.34;73.34
84821;BME280;75060;50.988;11.332;2023-12-20T15:23:13;98266.78;;;5.34;72.99
84821;BME280;75060;50.988;11.332;2023-12-20T15:25:38;98245.75;;;5.32;72.40
84821;BME280;75060;50.988;11.332;2023-12-20T15:28:03;98253.53;;;5.29;73.17
84821;BME280;75060;50.988;11.332;2023-12-20T15:30:29;98229.53;;;5.29;73.47
84821;BME280;75060;50.988;11.332;2023-12-20T15:32:55;98234.88;;;5.29;72.97
84821;BME280;75060;50.988;11.332;2023-12-20T15:35:21;98248.75;;;5.26;73.60
84821;BME280;75060;50.988;11.332;2023-12-20T15:37:47;98272.22;;;5.24;73.80
84821;BME280;75060;50.988;11.332;2023-12-20T15:40:12;98279.13;;;5.25;72.98
84821;BME280;75060;50.988;11.332;2023-12-20T15:42:38;98283.63;;;5.29;73.47
84821;BME280;75060;50.988;11.332;2023-12-20T15:45:05;98290.28;;;5.32;73.88
84821;BME280;75060;50.988;11.332;2023-12-20T15:47:31;98290.00;;;5.33;73.78
84821;BME280;75060;50.988;11.332;2023-12-20T15:49:56;98293.94;;;5.36;73.30
84821;BME280;75060;50.988;11.332;2023-12-20T15:52:24;98294.75;;;5.36;74.03
84821;BME280;75060;50.988;11.332;2023-12-20T15:54:49;98294.13;;;5.44;73.48
84821;BME280;75060;50.988;11.332;2023-12-20T15:57:17;98287.97;;;5.48;73.16
84821;BME280;75060;50.988;11.332;2023-12-20T15:59:43;98292.47;;;5.53;73.35
84821;BME280;75060;50.988;11.332;2023-12-20T16:02:08;98296.44;;;5.55;72.93
84821;BME280;75060;50.988;11.332;2023-12-20T16:04:33;98297.97;;;5.61;72.89
84821;BME280;75060;50.988;11.332;2023-12-20T16:06:58;98293.75;;;5.60;73.27
84821;BME280;75060;50.988;11.332;2023-12-20T16:09:24;98304.91;;;5.62;73.10
84821;BME280;75060;50.988;11.332;2023-12-20T16:11:49;98291.53;;;5.67;72.60
84821;BME280;75060;50.988;11.332;2023-12-20T16:14:15;98301.66;;;5.70;72.53
84821;BME280;75060;50.988;11.332;2023-12-20T16:16:43;98293.69;;;5.65;73.34
84821;BME280;75060;50.988;11.332;2023-12-20T16:19:08;98301.97;;;5.64;72.24
84821;BME280;75060;50.988;11.332;2023-12-20T16:21:34;98295.28;;;5.66;73.17
84821;BME280;75060;50.988;11.332;2023-12-20T16:23:59;98296.88;;;5.67;72.94
84821;BME280;75060;50.988;11.332;2023-12-20T16:26:24;98279.03;;;5.63;72.36
84821;BME280;75060;50.988;11.332;2023-12-20T16:28:50;98279.59;;;5.60;72.33
84821;BME280;75060;50.988;11.332;2023-12-20T16:31:17;98287.44;;;5.51;73.57
84821;BME280;75060;50.988;11.332;2023-12-20T16:33:42;98280.81;;;5.44;73.84
84821;BME280;75060;50.988;11.332;2023-12-20T16:36:07;98272.31;;;5.42;73.67
84821;BME280;75060;50.988;11.332;2023-12-20T16:38:33;98282.75;;;5.39;74.38
84821;BME280;75060;50.988;11.332;2023-12-20T16:40:58;98291.25;;;5.41;73.69
84821;BME280;75060;50.988;11.332;2023-12-20T16:43:24;98292.28;;;5.45;73.50
84821;BME280;75060;50.988;11.332;2023-12-20T16:45:49;98283.75;;;5.43;73.71
84821;BME280;75060;50.988;11.332;2023-12-20T16:48:14;98279.69;;;5.50;73.14
84821;BME280;75060;50.988;11.332;2023-12-20T16:50:40;98262.63;;;5.51;73.51
84821;BME280;75060;50.988;11.332;2023-12-20T16:53:05;98263.16;;;5.53;73.32
84821;BME280;75060;50.988;11.332;2023-12-20T16:55:30;98268.81;;;5.46;73.69
84821;BME280;75060;50.988;11.332;2023-12-20T16:57:56;98273.09;;;5.43;73.27
84821;BME280;75060;50.988;11.332;2023-12-20T17:00:21;98274.22;;;5.37;73.76
84821;BME280;75060;50.988;11.332;2023-12-20T17:02:47;98273.66;;;5.40;74.13
84821;BME280;75060;50.988;11.332;2023-12-20T17:05:13;98257.06;;;5.47;73.71
84821;BME280;75060;50.988;11.332;2023-12-20T17:07:39;98264.50;;;5.50;73.49
84821;BME280;75060;50.988;11.332;2023-12-20T17:10:05;98268.03;;;5.46;73.83
84821;BME280;75060;50.988;11.332;2023-12-20T17:12:31;98254.34;;;5.52;72.72
84821;BME280;75060;50.988;11.332;2023-12-20T17:14:56;98252.44;;;5.58;72.99
84821;BME280;75060;50.988;11.332;2023-12-20T17:17:22;98262.03;;;5.59;72.86
84821;BME280;75060;50.988;11.332;2023-12-20T17:19:47;98275.94;;;5.51;72.95
84821;BME280;75060;50.988;11.332;2023-12-20T17:22:12;98251.69;;;5.52;73.04
84821;BME280;75060;50.988;11.332;2023-12-20T17:24:38;98260.25;;;5.49;73.57
84821;BME280;75060;50.988;11.332;2023-12-20T17:27:03;98253.28;;;5.53;73.46
84821;BME280;75060;50.988;11.332;2023-12-20T17:29:30;98233.59;;;5.49;74.05
84821;BME280;75060;50.988;11.332;2023-12-20T17:31:55;98239.66;;;5.55;73.34
84821;BME280;75060;50.988;11.332;2023-12-20T17:34:20;98259.00;;;5.65;73.13
84821;BME280;75060;50.988;11.332;2023-12-20T17:36:45;98258.44;;;5.68;73.05
84821;BME280;75060;50.988;11.332;2023-12-20T17:39:12;98256.34;;;5.65;73.73
84821;BME280;75060;50.988;11.332;2023-12-20T17:41:37;98252.81;;;5.70;73.43
84821;BME280;75060;50.988;11.332;2023-12-20T17:44:03;98248.00;;;5.77;73.32
84821;BME280;75060;50.988;11.332;2023-12-20T17:46:29;98249.59;;;5.78;73.33
84821;BME280;75060;50.988;11.332;2023-12-20T17:48:54;98254.09;;;5.77;72.96
84821;BME280;75060;50.988;11.332;2023-12-20T17:51:21;98252.19;;;5.83;72.80
84821;BME280;75060;50.988;11.332;2023-12-20T17:53:47;98259.41;;;5.82;73.00
84821;BME280;75060;50.988;11.332;2023-12-20T17:56:12;98255.13;;;5.81;73.28
84821;BME280;75060;50.988;11.332;2023-12-20T17:58:38;98245.72;;;5.89;73.04
84821;BME280;75060;50.988;11.332;2023-12-20T18:01:03;98250.25;;;5.88;73.14
84821;BME280;75060;50.988;11.332;2023-12-20T18:03:29;98255.59;;;5.88;73.39
84821;BME280;75060;50.988;11.332;2023-12-20T18:05:54;98252.19;;;5.83;74.40
84821;BME280;75060;50.988;11.332;2023-12-20T18:08:20;98248.38;;;5.89;73.80
84821;BME280;75060;50.988;11.332;2023-12-20T18:10:45;98264.91;;;5.91;74.08
84821;BME280;75060;50.988;11.332;2023-12-20T18:13:10;98261.97;;;5.92;73.76
84821;BME280;75060;50.988;11.332;2023-12-20T18:15:36;98246.53;;;5.89;73.89
84821;BME280;75060;50.988;11.332;2023-12-20T18:18:02;98243.03;;;5.89;74.22
84821;BME280;75060;50.988;11.332;2023-12-20T18:20:27;98248.44;;;5.84;74.26
84821;BME280;75060;50.988;11.332;2023-12-20T18:22:52;98245.50;;;5.85;74.60
84821;BME280;75060;50.988;11.332;2023-12-20T18:25:18;98232.94;;;5.86;74.13
84821;BME280;75060;50.988;11.332;2023-12-20T18:27:43;98242.25;;;5.88;74.52
84821;BME280;75060;50.988;11.332;2023-12-20T18:30:09;98243.88;;;5.89;74.52
84821;BME280;75060;50.988;11.332;2023-12-20T18:32:35;98244.16;;;5.88;74.68
84821;BME280;75060;50.988;11.332;2023-12-20T18:35:01;98249.81;;;5.81;74.77
84821;BME280;75060;50.988;11.332;2023-12-20T18:37:28;98252.53;;;5.76;75.74
84821;BME280;75060;50.988;11.332;2023-12-20T18:39:53;98257.38;;;5.69;76.60
84821;BME280;75060;50.988;11.332;2023-12-20T18:42:18;98256.81;;;5.72;75.78
84821;BME280;75060;50.988;11.332;2023-12-20T18:44:44;98253.66;;;5.70;76.44
84821;BME280;75060;50.988;11.332;2023-12-20T18:47:09;98262.94;;;5.73;76.18
84821;BME280;75060;50.988;11.332;2023-12-20T18:49:34;98257.59;;;5.73;75.87
84821;BME280;75060;50.988;11.332;2023-12-20T18:52:00;98256.31;;;5.70;76.29
84821;BME280;75060;50.988;11.332;2023-12-20T18:54:27;98257.38;;;5.69;76.13
84821;BME280;75060;50.988;11.332;2023-12-20T18:56:53;98241.66;;;5.68;76.35
84821;BME280;75060;50.988;11.332;2023-12-20T18:59:18;98244.84;;;5.70;75.78
84821;BME280;75060;50.988;11.332;2023-12-20T19:01:45;98254.44;;;5.71;76.09
84821;BME280;75060;50.988;11.332;2023-12-20T19:04:10;98233.66;;;5.68;76.26
84821;BME280;75060;50.988;11.332;2023-12-20T19:06:35;98236.63;;;5.66;75.97
84821;BME280;75060;50.988;11.332;2023-12-20T19:09:01;98242.44;;;5.68;75.42
84821;BME280;75060;50.988;11.332;2023-12-20T19:11:26;98248.31;;;5.70;75.30
84821;BME280;75060;50.988;11.332;2023-12-20T19:13:51;98228.00;;;5.74;75.38
84821;BME280;75060;50.988;11.332;2023-12-20T19:16:17;98244.00;;;5.74;75.07
84821;BME280;75060;50.988;11.332;2023-12-20T19:18:42;98229.06;;;5.73;75.35
84821;BME280;75060;50.988;11.332;2023-12-20T19:21:07;98225.38;;;5.69;75.34
84821;BME280;75060;50.988;11.332;2023-12-20T19:23:34;98223.78;;;5.68;75.39
84821;BME280;75060;50.988;11.332;2023-12-20T19:25:59;98213.94;;;5.69;74.74
84821;BME280;75060;50.988;11.332;2023-12-20T19:28:27;98217.59;;;5.73;74.89
84821;BME280;75060;50.988;11.332;2023-12-20T19:30:53;98210.97;;;5.70;74.73
84821;BME280;75060;50.988;11.332;2023-12-20T19:33:18;98201.34;;;5.74;75.23
84821;BME280;75060;50.988;11.332;2023-12-20T19:35:44;98198.09;;;5.77;74.86
84821;BME280;75060;50.988;11.332;2023-12-20T19:38:09;98192.28;;;5.75;74.63
84821;BME280;75060;50.988;11.332;2023-12-20T19:40:34;98190.16;;;5.72;75.14
84821;BME280;75060;50.988;11.332;2023-12-20T19:42:59;98194.16;;;5.70;75.03
84821;BME280;75060;50.988;11.332;2023-12-20T19:45:25;98195.53;;;5.67;75.41
84821;BME280;75060;50.988;11.332;2023-12-20T19:47:52;98207.97;;;5.77;75.43
84821;BME280;75060;50.988;11.332;2023-12-20T19:50:18;98176.28;;;5.75;75.42
84821;BME280;75060;50.988;11.332;2023-12-20T19:52:44;98195.19;;;5.74;75.52
84821;BME280;75060;50.988;11.332;2023-12-20T19:55:10;98194.94;;;5.75;75.45
84821;BME280;75060;50.988;11.332;2023-12-20T19:57:35;98193.94;;;5.66;75.87
84821;BME280;75060;50.988;11.332;2023-12-20T20:00:01;98193.88;;;5.71;75.95
84821;BME280;75060;50.988;11.332;2023-12-20T20:02:26;98186.41;;;5.73;75.33
84821;BME280;75060;50.988;11.332;2023-12-20T20:04:52;98175.19;;;5.76;75.40
84821;BME280;75060;50.988;11.332;2023-12-20T20:07:17;98171.44;;;5.77;75.29
84821;BME280;75060;50.988;11.332;2023-12-20T20:09:45;98166.94;;;5.73;75.21
84821;BME280;75060;50.988;11.332;2023-12-20T20:12:11;98170.44;;;5.68;75.73
84821;BME280;75060;50.988;11.332;2023-12-20T20:14:36;98166.38;;;5.76;75.66
84821;BME280;75060;50.988;11.332;2023-12-20T20:17:01;98170.88;;;5.80;75.71
84821;BME280;75060;50.988;11.332;2023-12-20T20:19:27;98165.56;;;5.80;75.11
84821;BME280;75060;50.988;11.332;2023-12-20T20:21:53;98162.03;;;5.85;74.85
84821;BME280;75060;50.988;11.332;2023-12-20T20:24:20;98158.56;;;5.84;74.61
84821;BME280;75060;50.988;11.332;2023-12-20T20:26:45;98160.63;;;5.87;74.73
84821;BME280;75060;50.988;11.332;2023-12-20T20:29:11;98148.81;;;5.93;74.58
84821;BME280;75060;50.988;11.332;2023-12-20T20:31:36;98149.09;;;5.92;74.41
84821;BME280;75060;50.988;11.332;2023-12-20T20:34:02;98165.34;;;5.95;74.52
84821;BME280;75060;50.988;11.332;2023-12-20T20:36:27;98165.13;;;5.92;74.75
84821;BME280;75060;50.988;11.332;2023-12-20T20:38:53;98157.06;;;5.97;74.19
84821;BME280;75060;50.988;11.332;2023-12-20T20:41:18;98137.59;;;5.96;74.08
84821;BME280;75060;50.988;11.332;2023-12-20T20:43:43;98149.06;;;5.97;74.35
84821;BME280;75060;50.988;11.332;2023-12-20T20:46:09;98147.69;;;5.99;74.08
84821;BME280;75060;50.988;11.332;2023-12-20T20:48:34;98143.94;;;6.00;74.23
84821;BME280;75060;50.988;11.332;2023-12-20T20:51:03;98148.47;;;5.99;74.38
84821;BME280;75060;50.988;11.332;2023-12-20T20:53:29;98131.13;;;6.02;73.75
84821;BME280;75060;50.988;11.332;2023-12-20T20:55:55;98125.25;;;6.00;74.14
84821;BME280;75060;50.988;11.332;2023-12-20T20:58:20;98130.59;;;6.00;74.35
84821;BME280;75060;50.988;11.332;2023-12-20T21:00:45;98120.50;;;5.97;74.43
84821;BME280;75060;50.988;11.332;2023-12-20T21:03:11;98100.03;;;5.93;75.04
84821;BME280;75060;50.988;11.332;2023-12-20T21:05:36;98104.63;;;5.87;75.51
84821;BME280;75060;50.988;11.332;2023-12-20T21:08:02;98104.41;;;5.84;75.64
84821;BME280;75060;50.988;11.332;2023-12-20T21:10:28;98086.63;;;5.79;75.97
84821;BME280;75060;50.988;11.332;2023-12-20T21:12:53;98091.94;;;5.79;76.17
84821;BME280;75060;50.988;11.332;2023-12-20T21:15:18;98081.84;;;5.76;76.67
84821;BME280;75060;50.988;11.332;2023-12-20T21:17:44;98076.25;;;5.73;76.97
84821;BME280;75060;50.988;11.332;2023-12-20T21:20:12;98075.72;;;5.76;76.76
84821;BME280;75060;50.988;11.332;2023-12-20T21:22:38;98087.97;;;5.77;76.03
84821;BME280;75060;50.988;11.332;2023-12-20T21:25:04;98070.91;;;5.73;76.46
84821;BME280;75060;50.988;11.332;2023-12-20T21:27:30;98055.75;;;5.73;76.60
84821;BME280;75060;50.988;11.332;2023-12-20T21:29:58;98056.75;;;5.77;76.05
84821;BME280;75060;50.988;11.332;2023-12-20T21:32:23;98044.66;;;5.85;76.39
84821;BME280;75060;50.988;11.332;2023-12-20T21:34:49;98040.56;;;5.92;76.03
84821;BME280;75060;50.988;11.332;2023-12-20T21:37:14;98028.28;;;5.91;76.30
84821;BME280;75060;50.988;11.332;2023-12-20T21:39:39;98022.22;;;5.86;75.89
84821;BME280;75060;50.988;11.332;2023-12-20T21:42:05;98019.06;;;5.84;76.48
84821;BME280;75060;50.988;11.332;2023-12-20T21:44:30;98013.16;;;5.87;76.07
84821;BME280;75060;50.988;11.332;2023-12-20T21:46:56;98005.16;;;5.87;75.69
84821;BME280;75060;50.988;11.332;2023-12-20T21:49:21;98007.81;;;5.87;75.97
84821;BME280;75060;50.988;11.332;2023-12-20T21:51:46;97999.63;;;5.83;75.97
84821;BME280;75060;50.988;11.332;2023-12-20T21:54:12;98002.06;;;5.80;76.46
84821;BME280;75060;50.988;11.332;2023-12-20T21:56:40;97988.22;;;5.78;77.23
84821;BME280;75060;50.988;11.332;2023-12-20T21:59:05;97994.06;;;5.80;76.76
84821;BME280;75060;50.988;11.332;2023-12-20T22:01:31;97991.69;;;5.78;76.46
84821;BME280;75060;50.988;11.332;2023-12-20T22:03:56;97985.19;;;6.16;75.09
84821;BME280;75060;50.988;11.332;2023-12-20T22:06:21;97962.97;;;6.65;73.62
84821;BME280;75060;50.988;11.332;2023-12-20T22:08:46;97957.69;;;9.60;77.81
84821;BME280;75060;50.988;11.332;2023-12-20T22:13:53;97943.19;;;17.70;52.92
84821;BME280;75060;50.988;11.332;2023-12-20T22:16:19;97944.47;;;18.05;51.41
84821;BME280;75060;50.988;11.332;2023-12-20T22:18:44;97939.00;;;17.51;50.99
84821;BME280;75060;50.988;11.332;2023-12-20T22:21:09;97938.81;;;17.37;53.96
84821;BME280;75060;50.988;11.332;2023-12-20T22:23:37;97924.84;;;17.64;54.19
84821;BME280;75060;50.988;11.332;2023-12-20T22:26:03;97924.06;;;14.93;44.15
84821;BME280;75060;50.988;11.332;2023-12-20T22:28:30;97916.44;;;10.69;54.70
84821;BME280;75060;50.988;11.332;2023-12-20T22:30:55;97911.41;;;8.27;62.80
84821;BME280;75060;50.988;11.332;2023-12-20T22:33:21;97914.44;;;7.12;67.67
84821;BME280;75060;50.988;11.332;2023-12-20T22:35:46;97911.31;;;6.83;69.92
84821;BME280;75060;50.988;11.332;2023-12-20T22:38:11;97909.81;;;6.50;71.28
84821;BME280;75060;50.988;11.332;2023-12-20T22:40:37;97917.03;;;6.37;72.07
84821;BME280;75060;50.988;11.332;2023-12-20T22:43:02;97918.41;;;6.34;71.76
84821;BME280;75060;50.988;11.332;2023-12-20T22:45:27;97911.88;;;6.27;72.61
84821;BME280;75060;50.988;11.332;2023-12-20T22:47:53;97902.59;;;6.24;72.89
84821;BME280;75060;50.988;11.332;2023-12-20T22:50:18;97904.25;;;6.20;73.26
84821;BME280;75060;50.988;11.332;2023-12-20T22:52:44;97881.81;;;6.21;73.53
84821;BME280;75060;50.988;11.332;2023-12-20T22:55:09;97898.63;;;6.22;73.50
84821;BME280;75060;50.988;11.332;2023-12-20T22:57:35;97893.78;;;6.24;73.79
84821;BME280;75060;50.988;11.332;2023-12-20T23:00:01;97891.13;;;6.24;73.93
84821;BME280;75060;50.988;11.332;2023-12-20T23:02:26;97874.03;;;6.25;73.65
84821;BME280;75060;50.988;11.332;2023-12-20T23:04:52;97901.69;;;6.29;73.71
84821;BME280;75060;50.988;11.332;2023-12-20T23:07:17;97875.53;;;6.31;73.81
84821;BME280;75060;50.988;11.332;2023-12-20T23:09:42;97871.06;;;6.26;74.17
84821;BME280;75060;50.988;11.332;2023-12-20T23:12:08;97869.97;;;6.27;74.30
84821;BME280;75060;50.988;11.332;2023-12-20T23:14:33;97869.78;;;6.24;74.64
84821;BME280;75060;50.988;11.332;2023-12-20T23:16:58;97869.25;;;6.22;74.94
84821;BME280;75060;50.988;11.332;2023-12-20T23:19:24;97870.06;;;6.22;74.87
84821;BME280;75060;50.988;11.332;2023-12-20T23:21:49;97867.69;;;6.21;75.20
84821;BME280;75060;50.988;11.332;2023-12-20T23:24:17;97874.91;;;6.20;74.69
84821;BME280;75060;50.988;11.332;2023-12-20T23:26:42;97866.34;;;6.23;74.62
84821;BME280;75060;50.988;11.332;2023-12-20T23:29:08;97871.44;;;6.20;75.15
84821;BME280;75060;50.988;11.332;2023-12-20T23:31:33;97858.31;;;6.23;74.84
84821;BME280;75060;50.988;11.332;2023-12-20T23:33:58;97845.34;;;6.30;74.02
84821;BME280;75060;50.988;11.332;2023-12-20T23:36:24;97837.47;;;6.25;75.04
84821;BME280;75060;50.988;11.332;2023-12-20T23:38:49;97840.91;;;6.26;74.60
84821;BME280;75060;50.988;11.332;2023-12-20T23:41:14;97838.25;;;6.26;74.33
84821;BME280;75060;50.988;11.332;2023-12-20T23:43:40;97824.91;;;6.26;74.42
84821;BME280;75060;50.988;11.332;2023-12-20T23:46:05;97821.44;;;6.25;75.01
84821;BME280;75060;50.988;11.332;2023-12-20T23:48:30;97815.88;;;6.22;74.20
84821;BME280;75060;50.988;11.332;2023-12-20T23:50:58;97805.81;;;6.32;73.66
84821;BME280;75060;50.988;11.332;2023-12-20T23:53:24;97818.38;;;6.32;74.13
84821;BME280;75060;50.988;11.332;2023-12-20T23:55:52;97806.78;;;6.36;73.77
84821;BME280;75060;50.988;11.332;2023-12-20T23:58:17;97804.63;;;6.38;73.99
